Time;durP1;ratioP1;P1;durP2;ratioP2;P2;SDS_P1;SDS_P2;PMS_P1;PMS_P2;Temp;Humidity;BMP_temperature;BMP_pressure;BME280_temperature;BME280_humidity;BME280_pressure;Samples;Min_cycle;Max_cycle;Signal;HPM_P1;HPM_P2
2022/07/20 00:01:52;;;;;;;3.67;2.35;;;;;;;15.36;71.40;97536.78;5047149;28;20048;-63
2022/07/20 00:04:19;;;;;;;2.95;2.75;;;;;;;15.73;71.17;97570.91;5047417;28;20055;-59
2022/07/20 00:06:46;;;;;;;4.93;2.83;;;;;;;15.73;71.28;97579.28;5047029;28;20087;-63
2022/07/20 00:11:58;;;;;;;2.92;2.45;;;;;;;15.56;72.47;97580.00;5047006;28;20067;-60
2022/07/20 00:14:25;;;;;;;2.67;2.47;;;;;;;15.59;72.24;97579.22;5047029;28;20057;-60
2022/07/20 00:16:51;;;;;;;2.80;2.60;;;;;;;14.56;72.40;97414.25;5047175;28;20060;-59
2022/07/20 00:19:19;;;;;;;3.00;2.50;;;;;;;15.38;73.15;97565.09;5045639;28;20045;-60
2022/07/20 00:21:46;;;;;;;4.15;2.42;;;;;;;14.88;73.49;97501.75;5046639;28;20056;-63
2022/07/20 00:24:12;;;;;;;3.13;2.47;;;;;;;14.85;74.11;97494.16;5046765;28;20052;-63
2022/07/20 00:26:39;;;;;;;2.60;2.38;;;;;;;15.34;74.11;97577.41;5046228;28;20045;-61
2022/07/20 00:29:06;;;;;;;2.50;2.30;;;;;;;15.36;74.32;97575.03;5045411;28;20053;-64
2022/07/20 00:31:32;;;;;;;3.80;2.40;;;;;;;15.48;73.69;97567.19;5043818;28;20052;-60
2022/07/20 00:33:59;;;;;;;2.92;2.63;;;;;;;15.62;72.68;97563.66;5046692;28;20099;-64
2022/07/20 00:36:26;;;;;;;5.30;2.75;;;;;;;15.62;72.82;97567.25;5044919;28;20103;-64
2022/07/20 00:38:53;;;;;;;3.72;2.70;;;;;;;15.41;72.68;97528.06;5045025;28;20060;-63
2022/07/20 00:41:21;;;;;;;3.35;2.97;;;;;;;15.38;72.44;97517.66;5044691;28;20050;-64
2022/07/20 00:44:01;;;;;;;2.30;2.10;;;;;;;15.73;72.39;97561.75;5046091;28;20482;-60
2022/07/20 00:46:37;;;;;;;3.75;2.30;;;;;;;15.73;72.44;97562.53;5046291;28;20131;-59
2022/07/20 00:49:05;;;;;;;4.63;2.67;;;;;;;15.74;72.25;97566.94;5045978;28;20053;-63
2022/07/20 00:51:33;;;;;;;2.65;2.42;;;;;;;15.76;72.14;97567.31;5045932;28;20206;-60
2022/07/20 00:54:00;;;;;;;3.10;2.60;;;;;;;15.32;72.86;97524.75;5033894;28;20065;-60
2022/07/20 00:56:27;;;;;;;2.58;2.38;;;;;;;15.48;72.95;97539.25;5026029;28;20060;-64
2022/07/20 00:58:53;;;;;;;2.47;2.28;;;;;;;15.57;72.87;97562.03;5024150;28;20061;-63
2022/07/20 01:01:20;;;;;;;2.58;2.45;;;;;;;15.10;73.45;97503.50;5024054;28;20097;-63
2022/07/20 01:03:47;;;;;;;5.10;2.45;;;;;;;15.49;73.19;97557.59;5025639;28;20636;-63
2022/07/20 01:06:14;;;;;;;4.68;2.70;;;;;;;15.40;73.61;97562.72;5025869;28;20046;-59
2022/07/20 01:08:41;;;;;;;2.22;2.03;;;;;;;15.45;73.64;97556.78;5025433;28;20053;-63
2022/07/20 01:11:08;;;;;;;3.35;2.60;;;;;;;15.39;73.89;97552.78;5025461;28;20057;-63
2022/07/20 01:13:34;;;;;;;2.50;2.30;;;;;;;15.43;74.05;97575.91;5025215;28;20049;-64
2022/07/20 01:16:01;;;;;;;4.53;2.38;;;;;;;15.23;75.00;97560.59;5025174;28;20072;-60
2022/07/20 01:18:28;;;;;;;3.05;2.60;;;;;;;15.08;75.87;97553.28;5025230;28;20927;-63
2022/07/20 01:21:02;;;;;;;3.42;2.22;;;;;;;15.23;75.01;97555.00;5025354;28;20425;-61
2022/07/20 01:23:29;;;;;;;;;;;;;;;15.14;75.96;97546.19;5025793;28;20053;-59
2022/07/20 01:25:56;;;;;;;3.33;2.30;;;;;;;15.06;76.19;97547.31;5025578;28;19927;-63
2022/07/20 01:28:24;;;;;;;2.45;2.25;;;;;;;14.70;77.12;97525.91;5024968;28;20053;-63
2022/07/20 01:30:51;;;;;;;4.40;2.30;;;;;;;14.84;77.56;97537.19;5023595;28;20049;-62
2022/07/20 01:33:18;;;;;;;2.35;2.20;;;;;;;14.49;76.85;97478.31;5025465;28;20053;-64
2022/07/20 01:35:45;;;;;;;2.55;2.35;;;;;;;14.96;76.58;97536.88;5025385;28;20483;-59
2022/07/20 01:38:12;;;;;;;2.50;2.30;;;;;;;14.61;76.39;97489.16;5024785;28;20551;-60
2022/07/20 01:40:39;;;;;;;2.75;2.22;;;;;;;14.52;76.71;97480.34;5025164;28;20160;-61
2022/07/20 01:43:05;;;;;;;4.13;2.35;;;;;;;14.74;76.83;97535.09;5025226;28;20045;-60
2022/07/20 01:45:32;;;;;;;4.65;2.55;;;;;;;14.66;77.43;97530.63;5024907;28;20053;-61
2022/07/20 01:47:59;;;;;;;2.55;2.35;;;;;;;14.74;77.37;97532.31;5024752;28;20060;-62
2022/07/20 01:50:26;;;;;;;2.50;2.30;;;;;;;13.92;77.05;97395.38;5025169;28;20046;-61
2022/07/20 01:52:53;;;;;;;3.42;2.30;;;;;;;14.77;76.93;97531.53;5025719;28;20103;-61
2022/07/20 01:55:20;;;;;;;3.25;2.70;;;;;;;14.51;77.28;97489.91;5044607;28;20512;-63
2022/07/20 01:57:46;;;;;;;3.08;2.22;;;;;;;14.78;76.73;97533.13;5043451;28;20369;-61
2022/07/20 02:00:14;;;;;;;3.05;2.20;;;;;;;14.75;77.30;97533.91;5044634;28;20166;-64
2022/07/20 02:02:46;;;;;;;2.53;2.20;;;;;;;14.76;77.10;97524.38;5043554;28;20491;-64
2022/07/20 02:05:13;;;;;;;3.50;2.55;;;;;;;14.37;77.44;97478.63;5043054;28;20482;-60
2022/07/20 02:07:40;;;;;;;2.78;2.47;;;;;;;14.35;77.40;97464.25;5044519;28;20056;-64
2022/07/20 02:10:09;;;;;;;2.85;2.55;;;;;;;14.68;77.32;97511.53;5044418;28;20484;-61
2022/07/20 02:12:37;;;;;;;3.83;2.42;;;;;;;14.73;77.77;97525.13;5044725;28;20079;-62
2022/07/20 02:15:09;;;;;;;2.50;2.30;;;;;;;14.40;77.65;97477.84;5044562;28;20061;-61
2022/07/20 02:17:37;;;;;;;4.25;2.88;;;;;;;14.68;77.93;97523.50;5044493;28;20059;-65
2022/07/20 02:20:04;;;;;;;4.03;2.15;;;;;;;14.19;77.90;97444.97;5043217;28;20057;-65
2022/07/20 02:22:31;;;;;;;4.47;2.25;;;;;;;14.67;77.21;97509.91;5042901;28;20064;-62
2022/07/20 02:24:57;;;;;;;3.13;2.30;;;;;;;14.39;77.02;97467.88;5044310;28;20048;-64
2022/07/20 02:27:24;;;;;;;2.85;2.55;;;;;;;14.72;76.96;97523.50;5043046;28;20053;-64
2022/07/20 02:29:51;;;;;;;2.70;2.50;;;;;;;14.57;76.82;97516.22;5044255;28;20089;-64
2022/07/20 02:32:17;;;;;;;3.00;2.70;;;;;;;14.23;77.06;97489.56;5044289;28;20056;-64
2022/07/20 02:34:44;;;;;;;3.63;2.88;;;;;;;14.33;77.18;97484.16;5044270;28;20052;-60
2022/07/20 02:37:11;;;;;;;3.10;2.80;;;;;;;14.66;77.43;97519.50;5044383;28;20064;-61
2022/07/20 02:39:37;;;;;;;3.58;2.42;;;;;;;14.56;77.72;97520.19;5044591;28;20545;-64
2022/07/20 02:42:04;;;;;;;3.45;2.80;;;;;;;14.63;77.68;97520.25;5044342;28;20053;-61
2022/07/20 02:44:31;;;;;;;3.63;2.63;;;;;;;14.73;77.08;97513.97;5044038;28;20056;-64
2022/07/20 02:46:58;;;;;;;2.22;2.03;;;;;;;14.81;77.15;97518.44;5042743;28;20064;-65
2022/07/20 02:49:24;;;;;;;2.30;2.10;;;;;;;14.56;78.50;97520.19;5043994;28;20515;-64
2022/07/20 02:51:51;;;;;;;3.55;2.30;;;;;;;14.61;78.24;97505.91;5044016;28;20053;-64
2022/07/20 02:54:18;;;;;;;2.55;2.22;;;;;;;14.77;78.00;97525.97;5032321;28;20539;-65
2022/07/20 02:56:44;;;;;;;4.15;2.10;;;;;;;14.57;77.19;97477.19;5027358;28;20054;-61
2022/07/20 02:59:11;;;;;;;2.95;2.33;;;;;;;14.95;76.85;97526.91;5029015;28;20475;-62
2022/07/20 03:01:38;;;;;;;6.35;2.80;;;;;;;14.85;77.21;97530.41;5028220;28;20049;-61
2022/07/20 03:04:07;;;;;;;3.88;2.60;;;;;;;14.69;77.01;97501.97;5028615;28;20088;-63
2022/07/20 03:06:34;;;;;;;2.72;2.60;;;;;;;14.97;76.78;97530.09;5028337;28;20049;-64
2022/07/20 03:09:01;;;;;;;2.97;2.47;;;;;;;14.85;76.48;97505.31;5028353;28;20061;-65
2022/07/20 03:11:28;;;;;;;3.63;2.22;;;;;;;14.91;76.79;97524.09;5028476;28;20084;-65
2022/07/20 03:13:54;;;;;;;2.70;2.50;;;;;;;14.95;76.67;97526.91;5028342;28;20467;-65
2022/07/20 03:16:21;;;;;;;3.05;2.60;;;;;;;14.90;76.96;97521.69;5028443;28;20523;-65
2022/07/20 03:18:48;;;;;;;3.58;2.47;;;;;;;15.05;76.21;97526.16;5026460;28;20145;-62
2022/07/20 03:21:15;;;;;;;2.50;2.30;;;;;;;15.02;75.73;97501.84;5027870;28;20119;-65
2022/07/20 03:23:42;;;;;;;3.80;2.50;;;;;;;14.98;76.05;97514.97;5028282;28;20049;-64
2022/07/20 03:26:09;;;;;;;4.15;2.58;;;;;;;14.92;75.91;97508.16;5026481;28;20072;-61
2022/07/20 03:28:35;;;;;;;3.22;2.70;;;;;;;15.08;76.39;97533.75;5027880;28;20065;-62
2022/07/20 03:31:02;;;;;;;3.15;2.72;;;;;;;15.06;76.35;97533.38;5028047;28;20475;-61
2022/07/20 03:33:29;;;;;;;4.05;2.67;;;;;;;14.97;76.65;97525.31;5027646;28;20062;-64
2022/07/20 03:35:56;;;;;;;5.28;2.58;;;;;;;14.98;76.63;97545.66;5027545;28;20061;-64
2022/07/20 03:38:22;;;;;;;5.13;2.92;;;;;;;15.03;76.30;97528.56;5026020;28;20547;-60
2022/07/20 03:40:50;;;;;;;4.03;2.72;;;;;;;14.98;76.87;97529.72;5027639;28;20127;-64
2022/07/20 03:43:16;;;;;;;4.47;2.60;;;;;;;15.18;76.10;97524.69;5027373;28;20053;-64
2022/07/20 03:45:43;;;;;;;4.15;3.20;;;;;;;15.24;75.78;97528.69;5027423;28;20144;-64
2022/07/20 03:48:10;;;;;;;6.93;4.80;;;;;;;15.32;75.55;97530.34;5027129;28;20437;-62
2022/07/20 03:50:36;;;;;;;3.95;3.17;;;;;;;15.23;75.72;97520.72;5027399;28;20099;-62
2022/07/20 03:53:03;;;;;;;2.95;2.75;;;;;;;15.38;75.73;97531.59;5027073;28;20076;-65
2022/07/20 03:55:30;;;;;;;4.35;3.17;;;;;;;15.19;75.28;97499.16;5046464;28;20068;-60
2022/07/20 03:57:57;;;;;;;3.00;2.70;;;;;;;15.61;74.46;97537.72;5047127;28;20446;-64
2022/07/20 04:00:23;;;;;;;5.03;3.40;;;;;;;15.77;74.02;97535.44;5047116;28;20053;-63
2022/07/20 04:02:50;;;;;;;2.90;2.70;;;;;;;15.72;73.88;97527.41;5045528;28;20056;-65
2022/07/20 04:05:17;;;;;;;18.35;2.90;;;;;;;15.79;73.50;97533.03;5045579;28;20061;-65
2022/07/20 04:07:44;;;;;;;8.88;3.05;;;;;;;15.84;73.22;97529.84;5045431;28;20060;-60
2022/07/20 04:10:10;;;;;;;6.47;2.90;;;;;;;16.02;72.78;97527.94;5045368;28;20076;-62
2022/07/20 04:12:38;;;;;;;3.90;2.45;;;;;;;16.12;72.08;97507.59;5047088;28;20438;-64
2022/07/20 04:15:05;;;;;;;5.60;3.00;;;;;;;16.04;71.38;97472.47;5045098;28;20447;-64
2022/07/20 04:17:32;;;;;;;6.20;2.63;;;;;;;16.38;71.10;97509.25;5046725;28;20055;-62
2022/07/20 04:19:59;;;;;;;3.45;3.15;;;;;;;16.48;70.61;97503.72;5046981;28;20067;-63
2022/07/20 04:22:25;;;;;;;3.30;3.00;;;;;;;16.80;70.02;97525.31;5046671;28;20059;-63
2022/07/20 04:24:52;;;;;;;5.18;2.83;;;;;;;16.63;69.31;97486.94;5046236;28;20139;-63
2022/07/20 04:27:19;;;;;;;4.43;3.00;;;;;;;17.06;68.69;97510.91;5046501;28;20462;-63
2022/07/20 04:29:45;;;;;;;8.57;2.85;;;;;;;16.91;67.77;97454.16;5046645;28;20053;-64
2022/07/20 04:32:12;;;;;;;6.50;2.83;;;;;;;17.46;67.58;97524.50;5044746;28;20048;-63
2022/07/20 04:34:39;;;;;;;10.18;2.72;;;;;;;17.59;67.01;97525.66;5044462;28;20095;-60
2022/07/20 04:37:08;;;;;;;24.23;4.70;;;;;;;17.47;66.13;97461.66;5046125;28;20061;-63
2022/07/20 04:39:35;;;;;;;24.98;4.93;;;;;;;17.77;66.09;97506.78;5044777;28;20063;-62
2022/07/20 04:42:02;;;;;;;14.30;4.13;;;;;;;17.99;65.63;97525.09;5044859;28;20049;-63
2022/07/20 04:44:29;;;;;;;18.58;3.72;;;;;;;18.25;65.01;97527.41;5044532;28;20061;-66
2022/07/20 04:46:56;;;;;;;13.73;4.68;;;;;;;18.43;64.73;97522.50;5046152;28;20205;-63
2022/07/20 04:49:23;;;;;;;13.30;3.80;;;;;;;18.50;63.88;97522.47;5044489;28;20048;-63
2022/07/20 04:51:49;;;;;;;17.55;4.18;;;;;;;18.79;63.45;97529.50;5046113;28;20045;-63
2022/07/20 04:54:18;;;;;;;11.05;3.90;;;;;;;18.95;62.69;97526.94;5034685;28;20566;-60
2022/07/20 04:56:45;;;;;;;8.30;3.70;;;;;;;19.13;61.87;97527.59;5024429;28;20049;-64
2022/07/20 04:59:12;;;;;;;7.95;4.00;;;;;;;19.22;61.53;97530.72;5025929;28;20053;-63
2022/07/20 05:01:39;;;;;;;7.20;3.88;;;;;;;19.37;61.28;97531.41;5025840;28;20053;-64
2022/07/20 05:04:07;;;;;;;8.32;3.35;;;;;;;19.46;60.79;97529.72;5026181;28;20508;-62
2022/07/20 05:06:34;;;;;;;9.23;3.60;;;;;;;19.77;59.83;97538.22;5026141;28;20077;-63
2022/07/20 05:09:00;;;;;;;6.78;4.03;;;;;;;19.60;60.00;97492.22;5024977;28;20400;-64
2022/07/20 05:11:29;;;;;;;10.23;3.88;;;;;;;19.98;58.94;97509.88;5025768;28;20053;-64
2022/07/20 05:13:56;;;;;;;12.77;4.10;;;;;;;20.25;58.43;97531.22;5024521;28;20058;-63
2022/07/20 05:16:22;;;;;;;13.98;3.80;;;;;;;20.51;58.09;97526.88;5025255;28;20495;-60
2022/07/20 05:18:49;;;;;;;8.80;3.83;;;;;;;20.60;57.61;97513.06;5023892;28;20057;-61
2022/07/20 05:21:17;;;;;;;13.95;4.05;;;;;;;20.45;56.83;97461.00;5025664;28;20050;-61
2022/07/20 05:23:44;;;;;;;4.75;4.10;;;;;;;20.56;56.85;97472.91;5025715;28;20072;-64
2022/07/20 05:26:11;;;;;;;5.78;3.67;;;;;;;21.02;56.48;97537.78;5025758;28;20049;-64
2022/07/20 05:28:41;;;;;;;5.05;3.85;;;;;;;21.25;55.42;97526.53;5025453;28;20053;-62
2022/07/20 05:31:09;;;;;;;7.25;4.20;;;;;;;21.04;55.10;97476.16;5023837;28;20049;-63
2022/07/20 05:33:36;;;;;;;6.38;4.22;;;;;;;21.60;54.38;97520.25;5025204;28;20531;-63
2022/07/20 05:36:04;;;;;;;5.32;3.88;;;;;;;21.65;53.57;97521.78;5025450;28;20053;-63
2022/07/20 05:38:30;;;;;;;6.75;4.03;;;;;;;21.88;53.65;97525.38;5024045;28;20439;-60
2022/07/20 05:41:04;;;;;;;6.65;4.18;;;;;;;22.10;52.56;97531.38;5025515;28;20065;-61
2022/07/20 05:43:32;;;;;;;8.27;4.50;;;;;;;22.21;52.10;97527.09;5025195;28;20321;-64
2022/07/20 05:45:58;;;;;;;6.75;4.38;;;;;;;22.39;52.32;97527.53;5025448;28;20107;-61
2022/07/20 05:48:25;;;;;;;6.20;4.60;;;;;;;22.61;52.21;97524.25;5025235;28;20045;-64
2022/07/20 05:50:52;;;;;;;9.20;4.30;;;;;;;22.77;51.33;97524.28;5025056;28;20432;-61
2022/07/20 05:53:18;;;;;;;7.47;4.60;;;;;;;23.05;50.66;97532.09;5025309;28;20060;-63
2022/07/20 05:55:46;;;;;;;8.43;4.57;;;;;;;23.15;50.28;97528.22;5044423;28;20061;-65
2022/07/20 05:58:14;;;;;;;5.22;4.38;;;;;;;23.32;49.86;97521.34;5044481;28;20053;-65
2022/07/20 06:00:41;;;;;;;5.57;4.78;;;;;;;23.33;49.60;97511.66;5044791;28;20053;-64
2022/07/20 06:03:08;;;;;;;8.30;5.10;;;;;;;23.16;48.99;97461.94;5044561;28;20057;-64
2022/07/20 06:05:35;;;;;;;6.15;4.65;;;;;;;22.06;48.77;97277.50;5040578;28;20048;-62
2022/07/20 06:08:03;;;;;;;6.38;4.30;;;;;;;23.86;48.38;97494.03;5023617;28;20504;-60
2022/07/20 06:10:33;;;;;;;21.67;5.50;;;;;;;24.04;47.65;97514.16;5022990;28;20061;-65
2022/07/20 06:13:01;;;;;;;6.88;4.88;;;;;;;24.14;48.37;97515.09;5025370;28;20060;-60
2022/07/20 06:15:34;;;;;;;9.50;4.32;;;;;;;24.32;47.97;97509.69;5020825;28;20148;-65
2022/07/20 06:18:02;;;;;;;5.15;4.30;;;;;;;24.58;47.99;97517.00;5019548;28;20049;-59
2022/07/20 06:20:28;;;;;;;4.63;4.22;;;;;;;24.69;47.14;97498.44;5021126;28;20049;-68
2022/07/20 06:22:55;;;;;;;6.60;4.80;;;;;;;25.00;46.73;97513.66;5012929;28;20459;-67
2022/07/20 06:25:23;;;;;;;7.97;4.55;;;;;;;25.09;45.75;97496.75;5020311;28;20057;-62
2022/07/20 06:27:50;;;;;;;6.30;5.30;;;;;;;25.28;45.57;97517.59;5021061;28;21027;-58
2022/07/20 06:30:17;;;;;;;8.70;6.45;;;;;;;25.28;44.66;97475.84;5020299;28;20053;-66
2022/07/20 06:32:44;;;;;;;5.40;4.65;;;;;;;25.10;43.92;97430.28;5018294;28;20049;-67
2022/07/20 06:35:11;;;;;;;4.95;4.75;;;;;;;25.81;43.26;97518.63;5017835;28;20060;-62
2022/07/20 06:37:38;;;;;;;5.65;4.22;;;;;;;26.06;40.35;97501.50;5018905;28;20068;-58
2022/07/20 06:40:06;;;;;;;4.93;4.53;;;;;;;26.22;39.12;97501.31;5019388;28;20105;-71
2022/07/20 06:42:33;;;;;;;4.97;4.57;;;;;;;26.27;38.41;97501.50;5017748;28;20042;-61
2022/07/20 06:45:01;;;;;;;6.10;4.75;;;;;;;26.35;38.89;97482.16;5020506;28;20049;-62
2022/07/20 06:47:27;;;;;;;5.45;5.05;;;;;;;26.49;38.60;97492.97;5018241;28;20061;-57
2022/07/20 06:49:54;;;;;;;7.15;4.68;;;;;;;26.68;38.49;97498.31;5017062;28;20514;-69
2022/07/20 06:52:30;;;;;;;6.43;4.55;;;;;;;26.81;38.35;97498.22;5017522;28;20049;-66
2022/07/20 06:54:56;;;;;;;9.35;4.88;;;;;;;26.36;39.23;97478.06;5017327;28;20054;-65
2022/07/20 06:57:23;;;;;;;5.30;4.78;;;;;;;24.72;39.34;97268.00;5018554;28;20054;-68
2022/07/20 06:59:50;;;;;;;4.43;4.13;;;;;;;24.34;38.45;97179.50;5016735;28;20088;-68
2022/07/20 07:02:17;;;;;;;5.05;4.75;;;;;;;26.63;37.38;97495.25;5016178;28;20145;-69
2022/07/20 07:04:44;;;;;;;4.38;4.07;;;;;;;26.02;38.19;97452.59;5014444;28;20115;-59
2022/07/20 07:07:11;;;;;;;4.78;4.38;;;;;;;26.22;37.96;97496.44;5018579;28;20504;-68
2022/07/20 07:09:38;;;;;;;4.90;4.53;;;;;;;26.33;37.78;97476.13;5019049;28;20517;-65
2022/07/20 07:12:07;;;;;;;4.45;4.13;;;;;;;25.81;37.34;97396.56;5019083;28;20057;-58
2022/07/20 07:14:34;;;;;;;4.97;4.70;;;;;;;26.69;36.51;97496.25;5017694;28;20073;-70
2022/07/20 07:17:01;;;;;;;5.10;4.70;;;;;;;25.20;36.60;97261.81;5019723;28;20453;-59
2022/07/20 07:19:28;;;;;;;5.38;4.72;;;;;;;27.21;36.12;97487.63;5016454;28;20309;-60
2022/07/20 07:21:54;;;;;;;5.18;4.68;;;;;;;26.83;34.82;97453.06;5015442;28;20057;-62
2022/07/20 07:24:21;;;;;;;5.18;4.70;;;;;;;27.10;35.25;97489.31;5016233;28;20782;-61
2022/07/20 07:26:48;;;;;;;5.60;4.97;;;;;;;27.43;34.97;97494.03;5017028;28;20057;-59
2022/07/20 07:29:15;;;;;;;6.20;4.88;;;;;;;27.21;34.59;97444.94;5017568;28;20050;-68
2022/07/20 07:31:42;;;;;;;4.93;4.63;;;;;;;26.85;34.50;97422.09;5015215;28;20486;-61
2022/07/20 07:34:08;;;;;;;6.22;4.63;;;;;;;26.83;34.89;97475.78;5018305;28;20072;-68
2022/07/20 07:36:35;;;;;;;5.43;4.93;;;;;;;27.09;34.33;97484.91;5016069;28;20050;-68
2022/07/20 07:39:04;;;;;;;7.47;6.85;;;;;;;27.21;34.63;97433.56;5016087;28;20589;-76
2022/07/20 07:41:32;;;;;;;7.13;5.80;;;;;;;27.26;34.15;97378.91;5017657;28;20053;-65
2022/07/20 07:43:59;;;;;;;7.38;5.85;;;;;;;27.70;33.88;97407.84;5018806;28;20516;-71
2022/07/20 07:46:26;;;;;;;6.10;5.70;;;;;;;27.56;33.13;97369.44;5018335;28;20058;-61
2022/07/20 07:48:54;;;;;;;5.88;5.47;;;;;;;28.34;33.65;97474.13;5018271;28;20059;-60
2022/07/20 07:51:21;;;;;;;8.65;7.80;;;;;;;26.66;32.85;97181.69;5018683;28;20143;-65
2022/07/20 07:53:47;;;;;;;5.95;5.45;;;;;;;27.79;32.86;97468.44;5013397;28;20149;-59
2022/07/20 07:56:14;;;;;;;6.25;5.75;;;;;;;26.61;32.74;97304.50;5022052;28;20045;-74
2022/07/20 07:58:41;;;;;;;5.50;5.00;;;;;;;28.14;33.13;97468.94;5012796;28;20060;-61
2022/07/20 08:01:28;;;;;;;4.90;4.60;;;;;;;28.06;32.68;97470.53;5019094;28;20045;-72
2022/07/20 08:03:55;;;;;;;5.30;4.90;;;;;;;28.09;33.25;97470.38;5017446;28;20049;-71
2022/07/20 08:06:22;;;;;;;5.55;5.05;;;;;;;28.48;33.02;97468.59;5024786;28;20049;-60
2022/07/20 08:08:49;;;;;;;6.60;5.53;;;;;;;28.62;32.58;97467.13;5016386;28;20155;-65
2022/07/20 08:11:17;;;;;;;5.25;4.88;;;;;;;28.35;32.63;97467.16;5018541;28;20648;-62
2022/07/20 08:13:44;;;;;;;5.72;5.32;;;;;;;28.39;32.96;97471.41;5018804;28;20055;-71
2022/07/20 08:16:10;;;;;;;5.25;4.95;;;;;;;28.04;32.21;97422.56;5014212;28;20061;-61
2022/07/20 08:18:38;;;;;;;5.50;5.10;;;;;;;28.58;31.78;97449.41;5016641;28;20088;-71
2022/07/20 08:21:05;;;;;;;5.90;5.40;;;;;;;28.80;32.10;97478.47;5017555;28;20053;-72
2022/07/20 08:23:32;;;;;;;5.82;5.43;;;;;;;28.26;31.89;97472.88;5016968;28;20053;-70
2022/07/20 08:25:59;;;;;;;5.93;5.32;;;;;;;27.85;32.18;97391.72;5013654;28;20512;-66
2022/07/20 08:28:25;;;;;;;5.40;5.00;;;;;;;26.22;32.04;97137.75;5017252;28;20069;-64
2022/07/20 08:30:52;;;;;;;5.65;5.20;;;;;;;28.34;32.61;97462.75;5011584;28;20061;-69
2022/07/20 08:33:22;;;;;;;5.05;4.75;;;;;;;28.56;32.38;97460.50;5014462;28;20513;-63
2022/07/20 08:35:49;;;;;;;5.22;4.93;;;;;;;28.68;32.11;97451.72;5014839;28;20343;-78
2022/07/20 08:38:16;;;;;;;6.57;4.97;;;;;;;28.69;32.31;97461.88;5017956;28;22051;-70
2022/07/20 08:40:43;;;;;;;6.13;5.68;;;;;;;28.76;31.92;97464.38;5013724;28;20064;-64
2022/07/20 08:43:10;;;;;;;5.63;5.15;;;;;;;28.92;31.78;97454.66;5019027;28;20099;-59
2022/07/20 08:45:37;;;;;;;5.60;5.15;;;;;;;28.99;31.79;97455.09;5016354;28;20151;-66
2022/07/20 08:48:08;;;;;;;5.20;4.80;;;;;;;29.14;32.13;97463.75;5010780;28;20079;-64
2022/07/20 08:50:35;;;;;;;6.13;5.22;;;;;;;29.03;31.55;97400.69;5018111;28;20488;-63
2022/07/20 08:53:03;;;;;;;4.75;4.45;;;;;;;28.87;31.91;97421.06;5017713;28;20060;-61
2022/07/20 08:55:30;;;;;;;6.30;5.82;;;;;;;29.27;30.90;97455.78;5009500;28;20923;-61
2022/07/20 08:57:59;;;;;;;5.57;5.28;;;;;;;29.17;31.57;97462.78;5016493;28;20104;-68
2022/07/20 09:00:26;;;;;;;5.18;4.88;;;;;;;29.14;30.33;97412.41;5018750;28;20511;-60
2022/07/20 09:02:57;;;;;;;7.00;6.45;;;;;;;29.35;30.74;97446.34;5019216;28;20061;-61
2022/07/20 09:05:25;;;;;;;6.20;5.45;;;;;;;29.10;31.64;97446.03;5009728;28;20447;-63
2022/07/20 09:07:55;;;;;;;5.57;5.18;;;;;;;28.76;31.39;97452.97;5012720;28;20053;-60
2022/07/20 09:10:37;;;;;;;5.35;4.95;;;;;;;28.48;32.15;97456.41;5017427;28;20053;-72
2022/07/20 09:13:06;;;;;;;7.95;6.53;;;;;;;29.27;31.51;97441.50;5015184;28;20049;-62
2022/07/20 09:15:41;;;;;;;7.53;6.55;;;;;;;29.06;30.80;97342.66;5014460;28;20156;-60
2022/07/20 09:18:11;;;;;;;13.65;8.20;;;;;;;30.03;30.68;97432.22;5019215;28;20809;-70
2022/07/20 09:20:46;;;;;;;5.32;5.00;;;;;;;29.11;30.70;97430.50;5013717;28;20057;-60
2022/07/20 09:23:33;;;;;;;17.75;9.80;;;;;;;29.46;30.98;97411.56;5013077;28;20524;-66
2022/07/20 09:26:06;;;;;;;6.65;6.05;;;;;;;29.73;30.65;97448.50;5009011;28;20052;-65
2022/07/20 09:28:43;;;;;;;;;;;;;;;29.12;31.35;97432.06;5017327;28;20057;-63
2022/07/20 09:31:25;;;;;;;6.00;5.45;;;;;;;29.11;31.30;97425.56;5010802;28;19929;-62
2022/07/20 09:33:55;;;;;;;5.47;5.18;;;;;;;27.52;31.22;97169.56;5015492;28;20483;-64
2022/07/20 09:36:25;;;;;;;9.45;5.82;;;;;;;29.32;31.04;97418.78;5010992;28;20064;-63
2022/07/20 09:38:52;;;;;;;6.90;5.80;;;;;;;29.06;31.38;97305.56;5020907;28;20088;-60
2022/07/20 09:41:29;;;;;;;5.55;5.10;;;;;;;30.15;30.59;97389.03;5014106;28;20061;-65
2022/07/20 09:43:58;;;;;;;12.48;7.90;;;;;;;30.45;30.49;97424.97;5012547;28;20266;-65
2022/07/20 09:46:28;;;;;;;6.47;6.07;;;;;;;30.37;29.20;97386.59;5020692;28;20084;-60
2022/07/20 09:48:58;;;;;;;7.13;6.43;;;;;;;30.39;30.06;97397.56;5022252;28;20060;-63
2022/07/20 09:51:31;;;;;;;6.80;6.35;;;;;;;30.17;30.49;97415.09;5022037;28;20922;-60
2022/07/20 09:54:05;;;;;;;5.88;5.38;;;;;;;30.01;30.24;97401.25;5023086;28;20059;-61
2022/07/20 09:56:34;;;;;;;9.38;6.60;;;;;;;30.17;30.18;97405.72;5022111;28;20363;-67
2022/07/20 09:59:04;;;;;;;6.68;6.20;;;;;;;29.76;30.20;97383.88;5015274;28;20090;-62
2022/07/20 10:01:37;;;;;;;6.85;6.32;;;;;;;29.61;29.94;97383.81;5014035;28;20479;-61
2022/07/20 10:04:06;;;;;;;6.55;6.15;;;;;;;29.88;30.50;97402.81;5022640;28;20948;-61
2022/07/20 10:06:36;;;;;;;6.63;6.03;;;;;;;29.56;30.65;97410.97;5022739;28;20057;-59
2022/07/20 10:09:04;;;;;;;12.80;8.50;;;;;;;29.50;30.57;97397.88;5023856;28;20057;-63
2022/07/20 10:11:31;;;;;;;5.78;5.35;;;;;;;29.23;31.10;97400.91;5022480;28;20057;-65
2022/07/20 10:14:01;;;;;;;7.13;5.53;;;;;;;29.49;31.01;97404.88;5025760;28;20064;-62
2022/07/20 10:16:31;;;;;;;5.45;5.05;;;;;;;29.10;31.27;97406.09;5023216;28;20056;-65
2022/07/20 10:18:59;;;;;;;8.00;5.70;;;;;;;28.52;31.46;97320.16;5012491;28;20628;-59
2022/07/20 10:21:43;;;;;;;8.48;6.07;;;;;;;29.16;31.22;97376.41;5013195;28;20164;-67
2022/07/20 10:24:34;;;;;;;5.40;5.03;;;;;;;29.91;29.95;97390.41;5014646;28;20045;-61
2022/07/20 10:27:16;;;;;;;11.60;8.00;;;;;;;30.48;30.12;97372.50;5015484;28;20053;-71
2022/07/20 10:29:52;;;;;;;7.07;6.38;;;;;;;30.40;28.78;97262.66;5014825;28;20492;-61
2022/07/20 10:32:32;;;;;;;14.25;10.18;;;;;;;31.21;28.76;97377.25;5009288;28;20045;-69
2022/07/20 10:35:02;;;;;;;6.47;6.13;;;;;;;31.07;28.35;97378.09;5007088;28;20439;-67
2022/07/20 10:37:42;;;;;;;10.57;5.68;;;;;;;30.98;28.37;97359.00;5014726;28;20057;-66
2022/07/20 10:40:11;;;;;;;6.13;5.72;;;;;;;31.17;28.79;97357.44;5011232;28;20417;-63
2022/07/20 10:42:44;;;;;;;7.50;6.95;;;;;;;31.32;28.61;97349.59;5014434;28;20064;-60
2022/07/20 10:45:10;;;;;;;7.17;6.57;;;;;;;31.31;28.55;97362.34;5016888;28;20065;-63
2022/07/20 10:47:43;;;;;;;6.20;5.90;;;;;;;30.26;29.99;97360.69;5019069;28;20054;-60
2022/07/20 10:50:36;;;;;;;6.32;5.93;;;;;;;28.70;29.60;97057.72;5007698;28;20100;-63
2022/07/20 10:53:12;;;;;;;5.53;5.22;;;;;;;30.38;29.44;97351.00;5010314;28;20057;-61
2022/07/20 10:55:42;;;;;;;7.18;6.68;;;;;;;31.01;28.81;97351.47;5015763;28;20057;-61
2022/07/20 10:58:11;;;;;;;6.72;6.28;;;;;;;30.90;28.32;97327.13;5017031;28;20076;-64
2022/07/20 11:00:45;;;;;;;6.43;5.97;;;;;;;30.72;29.45;97350.25;5013320;28;20053;-62
2022/07/20 11:03:25;;;;;;;6.05;5.65;;;;;;;30.88;28.65;97332.59;5015182;28;20053;-62
2022/07/20 11:06:03;;;;;;;6.55;6.05;;;;;;;31.45;28.17;97274.75;5008660;28;20144;-64
2022/07/20 11:08:38;;;;;;;5.40;5.10;;;;;;;32.11;27.63;97330.72;5011903;28;20188;-63
2022/07/20 11:11:07;;;;;;;5.85;5.55;;;;;;;31.88;27.89;97316.69;5015633;28;20045;-62
2022/07/20 11:13:36;;;;;;;5.80;5.40;;;;;;;30.73;28.54;97280.31;5014889;28;20058;-64
2022/07/20 11:16:03;;;;;;;5.93;5.53;;;;;;;29.52;28.55;97055.53;5014898;28;20054;-64
2022/07/20 11:18:35;;;;;;;6.63;6.15;;;;;;;31.13;28.87;97315.97;5016366;28;20496;-65
2022/07/20 11:21:08;;;;;;;6.43;6.03;;;;;;;31.35;28.41;97291.31;5021881;28;20064;-62
2022/07/20 11:23:46;;;;;;;6.40;5.85;;;;;;;31.83;28.10;97323.09;5017103;28;20046;-60
2022/07/20 11:26:17;;;;;;;5.70;5.40;;;;;;;32.23;27.52;97323.00;5017569;28;20443;-65
2022/07/20 11:28:56;;;;;;;6.28;5.78;;;;;;;32.42;26.33;97297.63;5019708;28;20050;-63
2022/07/20 11:31:26;;;;;;;6.40;6.00;;;;;;;31.50;28.06;97302.69;5016230;28;20249;-65
2022/07/20 11:33:55;;;;;;;5.93;5.53;;;;;;;31.04;28.50;97299.75;5016472;28;20173;-68
2022/07/20 11:36:28;;;;;;;7.10;6.57;;;;;;;31.45;28.47;97237.53;5016173;28;20058;-66
2022/07/20 11:38:58;;;;;;;5.90;5.63;;;;;;;32.41;27.82;97296.06;5016436;28;20527;-67
2022/07/20 11:41:33;;;;;;;6.75;6.38;;;;;;;32.95;27.35;97307.16;5015641;28;20053;-62
2022/07/20 11:44:00;;;;;;;6.57;6.07;;;;;;;32.34;27.19;97291.56;5014246;28;20076;-61